Terminal Aerodrome Forecast
Issued by NWS Chicago, IL

Home | Current Version | Previous Version | Text Only | Print | Product List | Glossary On
Versions: 1 2 3 4 5 6 7 8 9 10 11 12 13 14 15 16 17
000
FTUS43 KLOT 270500
TAFRFD
TAF
KRFD 270531Z 2706/2806 VRB03KT P6SM BKN050
     FM270800 18005KT P6SM VCSH BKN025
     FM271100 21011KT 6SM BR OVC009
     FM271600 27016G27KT P6SM BKN025
     FM272300 29012KT P6SM BKN025
     FM280200 30008KT P6SM BKN025=

USA.gov is the U.S. government's official web portal to all federal, state and local government web resources and services.